Stunt Ranch Reserve, Santa Monica Mtns, California Weather observations

Data are for 10 minute period ending at time listed.
 Day   Time   Solar   Ave.   Ave.  Ave.  Vector  Max.   Baro.   Total    
  of    of     Rad.   Air    Rel.  Wind   Wind   Wind  Press.  Precip.   
Year   Day            Temp.  Hum.  Speed  Dir.   Gust                    
2015   (PST)  Kw/m2    F      %     mph   deg.    mph    mb.     in.     
-------------------------------------------------------------------------
  87   10:10   0.76   82.3    30    4.3   280     8.1   971.6    0.00 
  87   10:20   0.78   82.4    32    4.4   282     9.3   971.9    0.00 
  87   10:30   0.79   83.7    32    4.1   278     9.1   971.9    0.00 
  87   10:40   0.81   83.1    31    3.8   281     8.0   971.9    0.00 
  87   10:50   0.82   84.1    32    3.8   281     7.7   971.9    0.00 
  87   11:00   0.83   84.5    30    5.1   278     8.5   971.9    0.00 
  87   11:10   0.85   84.4    31    4.0   284     9.2   971.9    0.00 
  87   11:20   0.86   84.5    32    3.3   293     7.1   971.9    0.00 
  87   11:30   0.87   86.5    30    2.9   286     7.1   971.9    0.00 
  87   11:40   0.88   86.4    30    2.9   275     7.2   971.9    0.00 
  87   11:50   0.89   84.5    23    4.0   160     7.8   971.9    0.00 
  87   12:00   0.89   84.3    21    2.7   166     5.0   971.9    0.00 
  87   12:10   0.89   83.5    20    5.5   114    10.4   971.9    0.00 
  87   12:20   0.89   82.2    19    5.0   136     9.7   971.6    0.00 
  87   12:30   0.89   83.0    17    5.3   128     9.5   971.2    0.00 
  87   12:40   0.88   83.5    15    5.5   156    10.0   971.2    0.00 
  87   12:50   0.87   82.6    14    7.0   121    11.6   971.2    0.00 
  87   13:00   0.86   82.0    14    6.9   122    10.9   970.9    0.00 
  87   13:10   0.83   82.7    14    5.6   125    11.9   970.9    0.00 
  87   13:20   0.84   82.7    15    7.1   123    12.8   970.9    0.00 
  87   13:30   0.83   82.5    16    3.3   122     7.8   970.5    0.00 
  87   13:40   0.81   83.2    16    4.8   150     8.7   970.5    0.00 
  87   13:50   0.79   83.0    17    3.4   178     7.8   970.5    0.00 
  87   14:00   0.77   82.8    16    2.9   156     7.2   970.5    0.00 
  87   14:10   0.75   83.0    16    4.0   117     8.9   970.5    0.00 
  87   14:20   0.72   82.0    14    4.7   107     8.8   970.5    0.00 
  87   14:30   0.70   82.5    14    3.3   142     8.6   970.2    0.00 
  87   14:40   0.68   82.8    14    3.9   166     9.5   970.2    0.00 
  87   14:50   0.65   82.5    15    5.1   184     9.6   970.2    0.00 
  87   15:00   0.62   81.9    14    3.6   178     8.1   969.9    0.00 
  87   15:10   0.59   82.0    14    4.2   165    10.7   969.9    0.00 
  87   15:20   0.56   81.8    13    2.8   142     7.1   969.9    0.00 
  87   15:30   0.53   81.6    14    3.4   146     7.3   969.9    0.00 
  87   15:40   0.50   81.6    14    3.8   172     9.5   970.2    0.00 
  87   15:50   0.47   79.9    14    4.4   155     9.6   969.9    0.00 
  87   16:00   0.43   79.9    13    3.5   136     7.7   969.9    0.00 
  87   16:10   0.40   79.8    11    3.3   124     7.7   969.9    0.00 
  87   16:20   0.37   79.3    11    4.2   132     8.3   969.9    0.00 
  87   16:30   0.33   79.8    11    2.3   133     7.5   969.9    0.00 
  87   16:40   0.30   78.8    12    4.1   151     9.4   969.5    0.00 
  87   16:50   0.26   78.7    12    4.6   144    10.5   969.5    0.00 
  87   17:00   0.23   78.0    11    4.9   150    11.2   969.5    0.00 
  87   17:10   0.19   78.0    11    4.2   137     6.6   969.5    0.00 
  87   17:20   0.16   77.0    14    4.1   156     8.4   969.5    0.00 
  87   17:30   0.13   76.6    15    2.8   156     5.8   969.5    0.00 
  87   17:40   0.10   76.4    14    1.0    73     3.2   969.5    0.00 
  87   17:50   0.07   75.5    11    1.8   276     5.1   969.2    0.00 
  87   18:00   0.02   73.9    13    3.4   204     5.4   969.2    0.00 
  87   18:10   0.01   71.9    21    1.4   280     4.2   969.2    0.00 
  87   18:20   0.01   69.8    30    1.7   265     3.1   969.5    0.00 
  87   18:30   0.00   68.9    27    1.1   235     2.6   969.9    0.00 
  87   18:40   0.00   68.0    31    1.1   258     2.7   969.9    0.00 
  87   18:50   0.00   67.9    27    1.7   243     3.4   969.9    0.00 
  87   19:00   0.00   66.9    25    1.5   258     3.4   970.2    0.00 
  87   19:10   0.00   66.5    21    3.3   228     4.7   970.2    0.00 
  87   19:20   0.00   66.2    21    1.6   222     3.0   970.5    0.00 
  87   19:30   0.00   65.8    25    1.2   113     2.9   970.5    0.00 
  87   19:40   0.00   65.2    24    1.6   173     3.9   970.5    0.00 
  87   19:50   0.00   64.9    22    2.9   185     4.6   970.5    0.00 
  87   20:00   0.00   65.9    18    2.3   183     4.2   970.5    0.00 
  87   20:10   0.00   65.7    18    1.9   227     3.7   970.9    0.00 
  87   20:20   0.00   65.7    18    1.0   198     2.9   970.9    0.00 
  87   20:30   0.00   65.0    21    0.2   277     1.9   970.9    0.00 
  87   20:40   0.00   63.7    23    0.7   325     2.0   970.9    0.00 
  87   20:50   0.00   63.2    27    1.2   139     1.9   971.2    0.00 
  87   21:00   0.00   63.2    28    1.0   125     3.2   971.2    0.00 
  87   21:10   0.00   62.8    35    0.3   320     1.4   971.2    0.00 
  87   21:20   0.00   62.3    35    0.6   148     1.8   971.2    0.00 
  87   21:30   0.00   62.6    34    0.7   146     1.5   971.2    0.00 
  87   21:40   0.00   62.9    32    1.2   132     2.8   971.2    0.00 
  87   21:50   0.00   63.0    27    1.4    79     3.7   971.2    0.00 
  87   22:00   0.00   62.6    33    0.6   206     3.1   971.2    0.00 
  87   22:10   0.00   62.2    36    0.1   140     1.0   971.2    0.00 
  87   22:20   0.00   61.9    41    0.1   230     0.9   971.2    0.00 
  87   22:30   0.00   61.9    36    0.5   146     2.3   971.2    0.00 
  87   22:40   0.00   62.8    30    0.8   194     1.9   971.2    0.00 
  87   22:50   0.00   62.2    28    0.6   218     2.7   971.2    0.00 
  87   23:00   0.00   63.3    25    2.5   132     4.7   971.2    0.00 
  87   23:10   0.00   63.0    28    0.8    76     3.9   971.2    0.00 
  87   23:20   0.00   61.6    32    1.4   303     3.3   971.2    0.00 
  87   23:30   0.00   60.1    33    0.4    84     2.1   971.2    0.00 
  87   23:40   0.00   60.0    32    0.7   281     1.9   971.2    0.00 
  87   23:50   0.00   59.2    34    0.8   272     2.0   971.2    0.00 
  88    0:00   0.00   58.9    36    1.2   264     2.1   971.2    0.00 
  88    0:10   0.00   59.6    33    1.2   265     2.3   970.9    0.00 
  88    0:20   0.00   60.2    34    1.0   234     1.9   970.9    0.00 
  88    0:30   0.00   61.5    36    1.2   168     2.5   970.9    0.00 
  88    0:40   0.00   60.9    36    1.1   264     1.9   970.9    0.00 
  88    0:50   0.00   60.8    37    0.4    98     1.6   970.9    0.00 
  88    1:00   0.00   60.5    38    0.5    55     1.8   970.9    0.00 
  88    1:10   0.00   61.4    36    0.5   204     1.8   970.5    0.00 
  88    1:20   0.00   62.8    36    1.6   271     2.6   970.5    0.00 
  88    1:30   0.00   62.6    37    0.5   298     1.5   970.5    0.00 
  88    1:40   0.00   62.0    36    0.5   289     1.2   970.5    0.00 
  88    1:50   0.00   61.1    37    1.4   113     3.4   970.5    0.00 
  88    2:00   0.00   62.3    34    1.5   137     3.0   970.2    0.00 
  88    2:10   0.00   62.9    32    1.2   206     2.8   970.2    0.00 
  88    2:20   0.00   61.6    35    0.3   300     1.1   970.2    0.00 
  88    2:30   0.00   61.1    35    0.2   291     1.2   970.2    0.00 
  88    2:40   0.00   59.9    36    0.2     2     1.1   970.2    0.00 
  88    2:50   0.00   58.9    41    1.5   274     3.1   970.2    0.00 
  88    3:00   0.00   58.4    43    2.0   147     3.9   970.2    0.00 
  88    3:10   0.00   58.7    40    1.5   132     4.1   970.2    0.00 
  88    3:20   0.00   58.6    42    0.9   299     2.9   970.2    0.00 
  88    3:30   0.00   57.5    45    1.5   146     2.9   970.2    0.00 
  88    3:40   0.00   58.4    47    0.6   146     1.8   970.2    0.00 
  88    3:50   0.00   58.8    46    1.3   151     2.0   970.5    0.00 
  88    4:00   0.00   59.0    44    1.2   135     1.9   970.2    0.00 
  88    4:10   0.00   59.1    44    0.3   189     1.1   970.2    0.00 
  88    4:20   0.00   59.1    44    0.3    87     2.7   970.2    0.00 
  88    4:30   0.00   58.8    46    1.4   227     2.5   970.2    0.00 
  88    4:40   0.00   58.3    46    0.9   275     2.9   970.2    0.00 
  88    4:50   0.00   56.5    50    1.9   278     3.1   970.2    0.00 
  88    5:00   0.00   54.8    54    0.4   284     1.9   970.5    0.00 
  88    5:10   0.00   55.4    51    0.9   123     1.6   970.5    0.00 
  88    5:20   0.00   55.6    50    1.3   129     2.3   970.5    0.00 
  88    5:30   0.00   55.8    50    1.7   139     2.6   970.5    0.00 
  88    5:40   0.00   56.6    50    2.8   135     4.2   970.5    0.00 
  88    5:50   0.00   57.2    47    3.4   125     5.9   970.5    0.00 
  88    6:00   0.01   59.4    43    2.1   165     4.4   970.5    0.00 
  88    6:10   0.01   61.6    41    2.4   328     6.4   970.5    0.00 
  88    6:20   0.02   60.4    43    1.7   272     4.1   970.9    0.00 
  88    6:30   0.03   58.0    49    1.5   166     4.5   971.2    0.00 
  88    6:40   0.03   56.0    52    2.1   164     4.4   971.2    0.00 
  88    6:50   0.09   59.3    46    1.0   270     2.2   971.2    0.00 
  88    7:00   0.18   64.8    40    1.1   286     3.7   970.9    0.00 
  88    7:10   0.22   68.0    36    2.0   287     4.2   971.2    0.00 
  88    7:20   0.17   65.9    42    1.4   118     3.4   971.2    0.00 
  88    7:30   0.22   61.3    47    2.0   259     3.4   971.2    0.00 
  88    7:40   0.29   61.9    48    0.8   171     2.2   970.9    0.00 
  88    7:50   0.32   66.7    44    0.8    70     3.7   970.9    0.00 
  88    8:00   0.37   66.9    43    1.0    51     2.6   970.9    0.00 
  88    8:10   0.39   68.1    41    1.4   278     3.1   970.9    0.00 
  88    8:20   0.42   66.6    44    2.5   296     4.2   970.9    0.00 
  88    8:30   0.50   66.8    44    1.4   348     2.8   971.2    0.00 
  88    8:40   0.55   68.0    42    1.1   310     3.4   971.2    0.00 
  88    8:50   0.59   67.3    40    1.6   344     3.6   971.2    0.00 
  88    9:00   0.47   68.6    40    1.4   351     3.0   971.2    0.00 
  88    9:10   0.43   70.1    39    0.7   315     2.3   971.2    0.00 
  88    9:20   0.64   70.8    39    0.8    48     2.5   970.9    0.00 
  88    9:30   0.68   73.0    37    4.2   286     7.2   970.9    0.00 
  88    9:40   0.71   74.7    34    3.0   287     6.1   970.9    0.00 
  88    9:50   0.73   76.2    33    2.9   288     6.0   970.9    0.00 
  88   10:00   0.75   77.3    32    3.0   286     5.9   970.9    0.00 

Return to Stunt Ranch Reserve graphs page.


Western Regional Climate Center,wrcc@dri.edu